CXA8065 ZGHA-ZSRZ
Flight info
| Callsign | CXA8065 |
|---|---|
| Flight time | 2h 26m |
| Altitude | 35100 |
| Route | GUDRO W56 DOSKU V54 WXI W59 SUNOK W103 WFG |
| Aircraft | A321/M-SDE2E3FGHIJ1RWXY/LB1 |
Departure
| Time | 2026-04-26 02:58 |
|---|---|
| Airport | Changsha Huanghua International Airport (ZGHA) |
Arrival
| Time | 2026-04-26 05:24 |
|---|---|
| Airport | Rizhao Shanzihe Airport (ZSRZ) |
| Time | Latitude | Longitude | Altitude | Speed | Heading |
|---|---|---|---|---|---|
| 2026-04-26 02:26 | 28.19788 | 113.21556 | 214 ft | 0 kts | 268° |
| 2026-04-26 02:45 | 28.19788 | 113.21562 | 214 ft | 2 kts | 268° |
| 2026-04-26 02:45 | 28.19789 | 113.21578 | 216 ft | 2 kts | 268° |
| 2026-04-26 02:45 | 28.19789 | 113.21592 | 214 ft | 2 kts | 268° |
| 2026-04-26 02:46 | 28.19790 | 113.21606 | 214 ft | 2 kts | 271° |
| 2026-04-26 02:46 | 28.19788 | 113.21620 | 214 ft | 2 kts | 303° |
| 2026-04-26 02:46 | 28.19780 | 113.21631 | 221 ft | 2 kts | 330° |
| 2026-04-26 02:46 | 28.19769 | 113.21637 | 217 ft | 2 kts | 359° |
| 2026-04-26 02:47 | 28.19764 | 113.21637 | 214 ft | 0 kts | 359° |
| 2026-04-26 02:53 | 28.19767 | 113.21637 | 214 ft | 3 kts | 359° |
| 2026-04-26 02:53 | 28.19844 | 113.21635 | 214 ft | 16 kts | 356° |
| 2026-04-26 02:53 | 28.19948 | 113.21628 | 214 ft | 15 kts | 356° |
| 2026-04-26 02:53 | 28.20038 | 113.21628 | 213 ft | 9 kts | 14° |
| 2026-04-26 02:54 | 28.20063 | 113.21661 | 215 ft | 7 kts | 87° |
| 2026-04-26 02:54 | 28.20098 | 113.21702 | 220 ft | 9 kts | 31° |
| 2026-04-26 02:54 | 28.20188 | 113.21713 | 216 ft | 18 kts | 356° |
| 2026-04-26 02:54 | 28.20325 | 113.21703 | 214 ft | 20 kts | 357° |
| 2026-04-26 02:55 | 28.20456 | 113.21693 | 216 ft | 18 kts | 356° |
| 2026-04-26 02:55 | 28.20577 | 113.21701 | 216 ft | 16 kts | 32° |
| 2026-04-26 02:55 | 28.20604 | 113.21751 | 220 ft | 0 kts | 84° |
| 2026-04-26 02:57 | 28.20605 | 113.21782 | 215 ft | 12 kts | 89° |
| 2026-04-26 02:57 | 28.20570 | 113.21869 | 216 ft | 13 kts | 154° |
| 2026-04-26 02:57 | 28.20529 | 113.21878 | 216 ft | 4 kts | 174° |
| 2026-04-26 02:57 | 28.20485 | 113.21881 | 216 ft | 16 kts | 177° |
| 2026-04-26 02:58 | 28.20064 | 113.21903 | 218 ft | 104 kts | 177° |
| 2026-04-26 02:58 | 28.19088 | 113.21961 | 219 ft | 173 kts | 177° |
| 2026-04-26 02:58 | 28.17780 | 113.22046 | 729 ft | 194 kts | 176° |
| 2026-04-26 02:58 | 28.16434 | 113.22114 | 1775 ft | 195 kts | 179° |
| 2026-04-26 02:59 | 28.15073 | 113.22085 | 2834 ft | 194 kts | 185° |
| 2026-04-26 02:59 | 28.13781 | 113.21955 | 3774 ft | 178 kts | 188° |
| 2026-04-26 02:59 | 28.12601 | 113.21914 | 4646 ft | 163 kts | 161° |
| 2026-04-26 02:59 | 28.11815 | 113.22729 | 5277 ft | 160 kts | 111° |
| 2026-04-26 03:00 | 28.11902 | 113.24054 | 5380 ft | 190 kts | 72° |
| 2026-04-26 03:00 | 28.12496 | 113.25512 | 5611 ft | 210 kts | 61° |
| 2026-04-26 03:00 | 28.13027 | 113.26361 | 5751 ft | 222 kts | 50° |
| 2026-04-26 03:00 | 28.14336 | 113.27414 | 5913 ft | 244 kts | 19° |
| 2026-04-26 03:01 | 28.16068 | 113.27831 | 6102 ft | 265 kts | 8° |
| 2026-04-26 03:01 | 28.17913 | 113.28206 | 6498 ft | 282 kts | 11° |
| 2026-04-26 03:01 | 28.19863 | 113.28657 | 7136 ft | 288 kts | 10° |
| 2026-04-26 03:01 | 28.21830 | 113.29129 | 7917 ft | 289 kts | 10° |
| 2026-04-26 03:02 | 28.23799 | 113.29602 | 8721 ft | 289 kts | 10° |
| 2026-04-26 03:02 | 28.25773 | 113.30070 | 9535 ft | 291 kts | 9° |
| 2026-04-26 03:02 | 28.27760 | 113.30534 | 10233 ft | 294 kts | 9° |
| 2026-04-26 03:02 | 28.29835 | 113.31012 | 10421 ft | 316 kts | 9° |
| 2026-04-26 03:03 | 28.32069 | 113.31522 | 10547 ft | 337 kts | 9° |
| 2026-04-26 03:03 | 28.34447 | 113.32064 | 10673 ft | 358 kts | 9° |
| 2026-04-26 03:03 | 28.36940 | 113.32635 | 11068 ft | 369 kts | 9° |
| 2026-04-26 03:03 | 28.39445 | 113.33217 | 11617 ft | 374 kts | 9° |
| 2026-04-26 03:04 | 28.42016 | 113.33812 | 12213 ft | 378 kts | 9° |
| 2026-04-26 03:04 | 28.44609 | 113.34410 | 12788 ft | 382 kts | 9° |
| 2026-04-26 03:04 | 28.47228 | 113.35010 | 13369 ft | 385 kts | 8° |
| 2026-04-26 03:04 | 28.49871 | 113.35617 | 13947 ft | 389 kts | 8° |
| 2026-04-26 03:05 | 28.52536 | 113.36229 | 14443 ft | 393 kts | 8° |
| 2026-04-26 03:05 | 28.55221 | 113.36849 | 14957 ft | 396 kts | 8° |
| 2026-04-26 03:05 | 28.57025 | 113.37266 | 15282 ft | 398 kts | 8° |
| 2026-04-26 03:05 | 28.59752 | 113.37895 | 15753 ft | 401 kts | 8° |
| 2026-04-26 03:06 | 28.63430 | 113.38741 | 16416 ft | 405 kts | 8° |
| 2026-04-26 03:06 | 28.65270 | 113.39164 | 16725 ft | 407 kts | 8° |
| 2026-04-26 03:06 | 28.68054 | 113.39805 | 17190 ft | 409 kts | 8° |
| 2026-04-26 03:06 | 28.70857 | 113.40448 | 17672 ft | 412 kts | 8° |
| 2026-04-26 03:07 | 28.73685 | 113.41100 | 18151 ft | 415 kts | 8° |
| 2026-04-26 03:07 | 28.77449 | 113.41971 | 18699 ft | 418 kts | 8° |
| 2026-04-26 03:07 | 28.79376 | 113.42418 | 18977 ft | 420 kts | 8° |
| 2026-04-26 03:07 | 28.82209 | 113.43075 | 19405 ft | 421 kts | 7° |
| 2026-04-26 03:08 | 28.85090 | 113.43741 | 19850 ft | 423 kts | 7° |
| 2026-04-26 03:08 | 28.87980 | 113.44410 | 20235 ft | 424 kts | 7° |
| 2026-04-26 03:08 | 28.90886 | 113.45085 | 20660 ft | 426 kts | 7° |
| 2026-04-26 03:08 | 28.93806 | 113.45761 | 21118 ft | 428 kts | 7° |
| 2026-04-26 03:09 | 28.96735 | 113.46439 | 21563 ft | 430 kts | 7° |
| 2026-04-26 03:09 | 28.99675 | 113.47120 | 22002 ft | 432 kts | 7° |
| 2026-04-26 03:09 | 29.02626 | 113.47806 | 22462 ft | 434 kts | 7° |
| 2026-04-26 03:09 | 29.05584 | 113.48495 | 22896 ft | 435 kts | 7° |
| 2026-04-26 03:10 | 29.08557 | 113.49190 | 23328 ft | 437 kts | 7° |
| 2026-04-26 03:10 | 29.11546 | 113.49887 | 23716 ft | 439 kts | 7° |
| 2026-04-26 03:10 | 29.14541 | 113.50585 | 24081 ft | 440 kts | 6° |
| 2026-04-26 03:10 | 29.17554 | 113.51283 | 24435 ft | 442 kts | 6° |
| 2026-04-26 03:11 | 29.20576 | 113.51983 | 24795 ft | 443 kts | 6° |
| 2026-04-26 03:11 | 29.23560 | 113.52675 | 25118 ft | 444 kts | 6° |
| 2026-04-26 03:11 | 29.26598 | 113.53380 | 25425 ft | 446 kts | 6° |
| 2026-04-26 03:11 | 29.29661 | 113.53910 | 25684 ft | 443 kts | 360° |
| 2026-04-26 03:12 | 29.32740 | 113.54179 | 25996 ft | 444 kts | 359° |
| 2026-04-26 03:12 | 29.35826 | 113.54446 | 26307 ft | 446 kts | 359° |
| 2026-04-26 03:12 | 29.38931 | 113.54712 | 26631 ft | 447 kts | 359° |
| 2026-04-26 03:12 | 29.42042 | 113.54979 | 26962 ft | 449 kts | 359° |
| 2026-04-26 03:13 | 29.45165 | 113.55248 | 27278 ft | 450 kts | 359° |
| 2026-04-26 03:13 | 29.48286 | 113.55520 | 27566 ft | 452 kts | 360° |
| 2026-04-26 03:13 | 29.51440 | 113.55797 | 27900 ft | 452 kts | 360° |
| 2026-04-26 03:13 | 29.54572 | 113.56072 | 28332 ft | 450 kts | 360° |
| 2026-04-26 03:14 | 29.57682 | 113.56342 | 28751 ft | 448 kts | 360° |
| 2026-04-26 03:14 | 29.60788 | 113.56608 | 29174 ft | 446 kts | 360° |
| 2026-04-26 03:14 | 29.63882 | 113.56875 | 29584 ft | 444 kts | 360° |
| 2026-04-26 03:14 | 29.66960 | 113.57145 | 30003 ft | 443 kts | 360° |
| 2026-04-26 03:15 | 29.69984 | 113.57411 | 30345 ft | 441 kts | 360° |
| 2026-04-26 03:15 | 29.73046 | 113.57680 | 30694 ft | 440 kts | 359° |
| 2026-04-26 03:15 | 29.76090 | 113.57948 | 31032 ft | 438 kts | 359° |
| 2026-04-26 03:15 | 29.79131 | 113.58213 | 31380 ft | 437 kts | 359° |
| 2026-04-26 03:16 | 29.82160 | 113.58476 | 31728 ft | 436 kts | 359° |
| 2026-04-26 03:16 | 29.85180 | 113.58737 | 32085 ft | 434 kts | 358° |
| 2026-04-26 03:16 | 29.88189 | 113.59000 | 32443 ft | 433 kts | 358° |
| 2026-04-26 03:16 | 29.91193 | 113.59264 | 32799 ft | 431 kts | 358° |
| 2026-04-26 03:17 | 29.94149 | 113.59738 | 33152 ft | 437 kts | 6° |
| 2026-04-26 03:17 | 29.97073 | 113.60808 | 33493 ft | 446 kts | 15° |
| 2026-04-26 03:17 | 29.99924 | 113.62232 | 33827 ft | 446 kts | 15° |
| 2026-04-26 03:17 | 30.02766 | 113.63660 | 34135 ft | 445 kts | 15° |
| 2026-04-26 03:18 | 30.05604 | 113.65081 | 34434 ft | 443 kts | 15° |
| 2026-04-26 03:18 | 30.08435 | 113.66497 | 34744 ft | 442 kts | 15° |
| 2026-04-26 03:18 | 30.11257 | 113.67905 | 34997 ft | 441 kts | 15° |
| 2026-04-26 03:18 | 30.14076 | 113.69311 | 35062 ft | 439 kts | 15° |
| 2026-04-26 03:19 | 30.19634 | 113.72089 | 35062 ft | 436 kts | 15° |
| 2026-04-26 03:19 | 30.25206 | 113.74876 | 35062 ft | 436 kts | 15° |
| 2026-04-26 03:20 | 30.30772 | 113.77668 | 35060 ft | 435 kts | 15° |
| 2026-04-26 03:20 | 30.36297 | 113.80433 | 35062 ft | 435 kts | 15° |
| 2026-04-26 03:21 | 30.41848 | 113.83213 | 35066 ft | 434 kts | 15° |
| 2026-04-26 03:21 | 30.47406 | 113.86011 | 35074 ft | 435 kts | 15° |
| 2026-04-26 03:22 | 30.52961 | 113.88813 | 35076 ft | 434 kts | 15° |
| 2026-04-26 03:22 | 30.58476 | 113.91594 | 35074 ft | 434 kts | 15° |
| 2026-04-26 03:23 | 30.64017 | 113.94390 | 35073 ft | 433 kts | 15° |
| 2026-04-26 03:23 | 30.69564 | 113.97088 | 35070 ft | 432 kts | 14° |
| 2026-04-26 03:24 | 30.75074 | 113.99955 | 35070 ft | 435 kts | 18° |
| 2026-04-26 03:24 | 30.80550 | 114.03067 | 35053 ft | 446 kts | 18° |
| 2026-04-26 03:25 | 30.86186 | 114.06197 | 35054 ft | 448 kts | 17° |
| 2026-04-26 03:25 | 30.91847 | 114.09261 | 35053 ft | 448 kts | 17° |
| 2026-04-26 03:26 | 30.97507 | 114.12311 | 35051 ft | 448 kts | 17° |
| 2026-04-26 03:26 | 31.03165 | 114.15374 | 35058 ft | 448 kts | 17° |
| 2026-04-26 03:27 | 31.08777 | 114.18432 | 35063 ft | 448 kts | 17° |
| 2026-04-26 03:27 | 31.14428 | 114.21511 | 35073 ft | 447 kts | 17° |
| 2026-04-26 03:28 | 31.20067 | 114.24577 | 35072 ft | 447 kts | 17° |
| 2026-04-26 03:28 | 31.25718 | 114.27656 | 35077 ft | 447 kts | 18° |
| 2026-04-26 03:29 | 31.31324 | 114.30720 | 35084 ft | 447 kts | 18° |
| 2026-04-26 03:29 | 31.37101 | 114.33025 | 35078 ft | 431 kts | 2° |
| 2026-04-26 03:30 | 31.43011 | 114.33367 | 35081 ft | 424 kts | 355° |
| 2026-04-26 03:30 | 31.48915 | 114.33536 | 35080 ft | 425 kts | 356° |
| 2026-04-26 03:31 | 31.54831 | 114.33726 | 35077 ft | 425 kts | 356° |
| 2026-04-26 03:31 | 31.60737 | 114.33905 | 35076 ft | 425 kts | 355° |
| 2026-04-26 03:32 | 31.66649 | 114.34076 | 35072 ft | 425 kts | 356° |
| 2026-04-26 03:32 | 31.72565 | 114.34250 | 35071 ft | 425 kts | 356° |
| 2026-04-26 03:33 | 31.78485 | 114.34433 | 35065 ft | 425 kts | 356° |
| 2026-04-26 03:33 | 31.84362 | 114.34608 | 35067 ft | 425 kts | 356° |
| 2026-04-26 03:34 | 31.90276 | 114.34782 | 35065 ft | 424 kts | 356° |
| 2026-04-26 03:34 | 31.96172 | 114.34961 | 35059 ft | 424 kts | 355° |
| 2026-04-26 03:35 | 32.02086 | 114.35142 | 35056 ft | 424 kts | 355° |
| 2026-04-26 03:35 | 32.07963 | 114.35321 | 35056 ft | 424 kts | 355° |
| 2026-04-26 03:36 | 32.13865 | 114.35498 | 35058 ft | 425 kts | 355° |
| 2026-04-26 03:36 | 32.19779 | 114.35675 | 35061 ft | 425 kts | 355° |
| 2026-04-26 03:37 | 32.25684 | 114.35854 | 35059 ft | 425 kts | 356° |
| 2026-04-26 03:37 | 32.31604 | 114.36260 | 35058 ft | 427 kts | 358° |
| 2026-04-26 03:38 | 32.37488 | 114.36874 | 35054 ft | 427 kts | 359° |
| 2026-04-26 03:38 | 32.43399 | 114.37477 | 35053 ft | 426 kts | 358° |
| 2026-04-26 03:39 | 32.49314 | 114.38032 | 35047 ft | 426 kts | 358° |
| 2026-04-26 03:39 | 32.55247 | 114.38563 | 35045 ft | 426 kts | 358° |
| 2026-04-26 03:40 | 32.61158 | 114.39099 | 35051 ft | 426 kts | 358° |
| 2026-04-26 03:40 | 32.67036 | 114.39639 | 35049 ft | 426 kts | 358° |
| 2026-04-26 03:41 | 32.72955 | 114.40196 | 35049 ft | 426 kts | 358° |
| 2026-04-26 03:41 | 32.78867 | 114.40745 | 35050 ft | 425 kts | 358° |
| 2026-04-26 03:42 | 32.84735 | 114.41285 | 35053 ft | 425 kts | 358° |
| 2026-04-26 03:42 | 32.90646 | 114.41836 | 35051 ft | 426 kts | 358° |
| 2026-04-26 03:43 | 32.96557 | 114.42391 | 35049 ft | 426 kts | 358° |
| 2026-04-26 03:43 | 33.02467 | 114.42943 | 35048 ft | 426 kts | 358° |
| 2026-04-26 03:44 | 33.08341 | 114.43496 | 35045 ft | 425 kts | 358° |
| 2026-04-26 03:44 | 33.14247 | 114.44050 | 35051 ft | 425 kts | 357° |
| 2026-04-26 03:45 | 33.20155 | 114.44606 | 35046 ft | 425 kts | 358° |
| 2026-04-26 03:45 | 33.26020 | 114.45166 | 35046 ft | 425 kts | 357° |
| 2026-04-26 03:46 | 33.31910 | 114.45718 | 35043 ft | 425 kts | 357° |
| 2026-04-26 03:47 | 33.40756 | 114.46543 | 35046 ft | 425 kts | 357° |
| 2026-04-26 03:47 | 33.46658 | 114.47101 | 35046 ft | 424 kts | 357° |
| 2026-04-26 03:48 | 33.52544 | 114.47662 | 35042 ft | 424 kts | 357° |
| 2026-04-26 03:48 | 33.58393 | 114.48212 | 35041 ft | 424 kts | 357° |
| 2026-04-26 03:49 | 33.64279 | 114.48758 | 35037 ft | 424 kts | 357° |
| 2026-04-26 03:49 | 33.70175 | 114.49307 | 35039 ft | 424 kts | 357° |
| 2026-04-26 03:50 | 33.76028 | 114.49858 | 35039 ft | 424 kts | 357° |
| 2026-04-26 03:50 | 33.81922 | 114.50420 | 35033 ft | 424 kts | 357° |
| 2026-04-26 03:51 | 33.87814 | 114.50976 | 35033 ft | 424 kts | 357° |
| 2026-04-26 03:51 | 33.93670 | 114.51520 | 35035 ft | 425 kts | 357° |
| 2026-04-26 03:52 | 33.99571 | 114.52076 | 35034 ft | 424 kts | 357° |
| 2026-04-26 03:52 | 34.05476 | 114.52633 | 35037 ft | 425 kts | 357° |
| 2026-04-26 03:53 | 34.10378 | 114.53104 | 35036 ft | 425 kts | 357° |
| 2026-04-26 03:53 | 34.17248 | 114.53758 | 35040 ft | 425 kts | 357° |
| 2026-04-26 03:54 | 34.22152 | 114.54228 | 35033 ft | 425 kts | 357° |
| 2026-04-26 03:54 | 34.28057 | 114.54795 | 35032 ft | 425 kts | 357° |
| 2026-04-26 03:55 | 34.33960 | 114.55350 | 35037 ft | 425 kts | 357° |
| 2026-04-26 03:55 | 34.39855 | 114.55908 | 35037 ft | 425 kts | 357° |
| 2026-04-26 03:56 | 34.45723 | 114.56469 | 35033 ft | 425 kts | 357° |
| 2026-04-26 03:56 | 34.51612 | 114.57026 | 35037 ft | 424 kts | 357° |
| 2026-04-26 03:57 | 34.57504 | 114.57580 | 35039 ft | 424 kts | 357° |
| 2026-04-26 03:57 | 34.63381 | 114.58133 | 35039 ft | 424 kts | 357° |
| 2026-04-26 03:58 | 34.69263 | 114.58689 | 35036 ft | 423 kts | 358° |
| 2026-04-26 03:58 | 34.75094 | 114.59248 | 35032 ft | 423 kts | 358° |
| 2026-04-26 03:59 | 34.80964 | 114.59813 | 35030 ft | 422 kts | 358° |
| 2026-04-26 03:59 | 34.86829 | 114.60367 | 35032 ft | 422 kts | 357° |
| 2026-04-26 04:00 | 34.92685 | 114.60922 | 35030 ft | 422 kts | 358° |
| 2026-04-26 04:00 | 34.98543 | 114.61487 | 35027 ft | 421 kts | 358° |
| 2026-04-26 04:01 | 35.04349 | 114.62048 | 35029 ft | 421 kts | 358° |
| 2026-04-26 04:01 | 35.10193 | 114.62616 | 35032 ft | 420 kts | 358° |
| 2026-04-26 04:02 | 35.16030 | 114.63172 | 35034 ft | 420 kts | 357° |
| 2026-04-26 04:02 | 35.21864 | 114.63727 | 35029 ft | 419 kts | 357° |
| 2026-04-26 04:03 | 35.27638 | 114.64291 | 35028 ft | 419 kts | 357° |
| 2026-04-26 04:03 | 35.33453 | 114.64851 | 35024 ft | 419 kts | 357° |
| 2026-04-26 04:04 | 35.39259 | 114.65412 | 35026 ft | 418 kts | 357° |
| 2026-04-26 04:04 | 35.45067 | 114.65974 | 35032 ft | 418 kts | 357° |
| 2026-04-26 04:05 | 35.50870 | 114.66530 | 35028 ft | 418 kts | 357° |
| 2026-04-26 04:05 | 35.56663 | 114.67096 | 35032 ft | 418 kts | 357° |
| 2026-04-26 04:06 | 35.62452 | 114.67658 | 35030 ft | 417 kts | 357° |
| 2026-04-26 04:06 | 35.68244 | 114.68223 | 35027 ft | 417 kts | 357° |
| 2026-04-26 04:07 | 35.73998 | 114.68785 | 35026 ft | 417 kts | 357° |
| 2026-04-26 04:07 | 35.79793 | 114.69353 | 35028 ft | 417 kts | 357° |
| 2026-04-26 04:08 | 35.85580 | 114.69920 | 35031 ft | 417 kts | 357° |
| 2026-04-26 04:08 | 35.91365 | 114.70488 | 35030 ft | 417 kts | 357° |
| 2026-04-26 04:09 | 35.97109 | 114.71048 | 35029 ft | 417 kts | 357° |
| 2026-04-26 04:09 | 36.02900 | 114.71614 | 35031 ft | 417 kts | 356° |
| 2026-04-26 04:10 | 36.08679 | 114.72716 | 35032 ft | 431 kts | 10° |
| 2026-04-26 04:10 | 36.11466 | 114.74237 | 35030 ft | 444 kts | 20° |
| 2026-04-26 04:10 | 36.14160 | 114.76128 | 35024 ft | 445 kts | 20° |
| 2026-04-26 04:11 | 36.19556 | 114.79914 | 35023 ft | 446 kts | 20° |
| 2026-04-26 04:11 | 36.24960 | 114.83694 | 35019 ft | 446 kts | 20° |
| 2026-04-26 04:12 | 36.30372 | 114.87481 | 35020 ft | 447 kts | 20° |
| 2026-04-26 04:12 | 36.32938 | 114.89662 | 35013 ft | 461 kts | 31° |
| 2026-04-26 04:12 | 36.35206 | 114.92574 | 35012 ft | 477 kts | 43° |
| 2026-04-26 04:12 | 36.36992 | 114.96120 | 34999 ft | 493 kts | 56° |
| 2026-04-26 04:13 | 36.38176 | 115.00181 | 35002 ft | 506 kts | 67° |
| 2026-04-26 04:13 | 36.39991 | 115.08643 | 34987 ft | 508 kts | 68° |
| 2026-04-26 04:13 | 36.40890 | 115.12891 | 34817 ft | 509 kts | 68° |
| 2026-04-26 04:14 | 36.41787 | 115.17143 | 34648 ft | 510 kts | 68° |
| 2026-04-26 04:14 | 36.42673 | 115.21354 | 34490 ft | 510 kts | 68° |
| 2026-04-26 04:14 | 36.43571 | 115.25612 | 34328 ft | 510 kts | 68° |
| 2026-04-26 04:14 | 36.44472 | 115.29875 | 34168 ft | 510 kts | 68° |
| 2026-04-26 04:15 | 36.45379 | 115.34146 | 34004 ft | 511 kts | 68° |
| 2026-04-26 04:15 | 36.46283 | 115.38417 | 33833 ft | 511 kts | 68° |
| 2026-04-26 04:15 | 36.47186 | 115.42703 | 33643 ft | 511 kts | 68° |
| 2026-04-26 04:15 | 36.48081 | 115.46974 | 33459 ft | 512 kts | 68° |
| 2026-04-26 04:16 | 36.48975 | 115.51257 | 33270 ft | 512 kts | 69° |
| 2026-04-26 04:16 | 36.49869 | 115.55544 | 33086 ft | 512 kts | 69° |
| 2026-04-26 04:16 | 36.50760 | 115.59830 | 32905 ft | 512 kts | 69° |
| 2026-04-26 04:16 | 36.51640 | 115.64076 | 32727 ft | 512 kts | 69° |
| 2026-04-26 04:17 | 36.52529 | 115.68363 | 32549 ft | 512 kts | 69° |
| 2026-04-26 04:17 | 36.53418 | 115.72663 | 32371 ft | 512 kts | 69° |
| 2026-04-26 04:17 | 36.54304 | 115.76954 | 32192 ft | 512 kts | 70° |
| 2026-04-26 04:17 | 36.55193 | 115.81246 | 32016 ft | 512 kts | 70° |
| 2026-04-26 04:18 | 36.56084 | 115.85540 | 31838 ft | 512 kts | 70° |
| 2026-04-26 04:18 | 36.56971 | 115.89832 | 31664 ft | 512 kts | 70° |
| 2026-04-26 04:18 | 36.57855 | 115.94139 | 31485 ft | 513 kts | 70° |
| 2026-04-26 04:18 | 36.58721 | 115.98387 | 31316 ft | 513 kts | 71° |
| 2026-04-26 04:19 | 36.59598 | 116.02692 | 31145 ft | 513 kts | 71° |
| 2026-04-26 04:19 | 36.60478 | 116.07012 | 30981 ft | 513 kts | 71° |
| 2026-04-26 04:19 | 36.61353 | 116.11321 | 30807 ft | 513 kts | 71° |
| 2026-04-26 04:19 | 36.62229 | 116.15636 | 30640 ft | 513 kts | 71° |
| 2026-04-26 04:20 | 36.63102 | 116.19941 | 30469 ft | 513 kts | 71° |
| 2026-04-26 04:20 | 36.63976 | 116.24251 | 30302 ft | 513 kts | 72° |
| 2026-04-26 04:20 | 36.64849 | 116.28559 | 30138 ft | 513 kts | 72° |
| 2026-04-26 04:20 | 36.65712 | 116.32815 | 29973 ft | 514 kts | 72° |
| 2026-04-26 04:21 | 36.66584 | 116.37141 | 29778 ft | 514 kts | 72° |
| 2026-04-26 04:21 | 36.67451 | 116.41466 | 29587 ft | 514 kts | 72° |
| 2026-04-26 04:21 | 36.68312 | 116.45790 | 29392 ft | 514 kts | 72° |
| 2026-04-26 04:21 | 36.69173 | 116.50113 | 29195 ft | 514 kts | 72° |
| 2026-04-26 04:22 | 36.70037 | 116.54443 | 29005 ft | 515 kts | 72° |
| 2026-04-26 04:22 | 36.70904 | 116.58780 | 28812 ft | 515 kts | 72° |
| 2026-04-26 04:22 | 36.71769 | 116.63118 | 28621 ft | 515 kts | 72° |
| 2026-04-26 04:22 | 36.72630 | 116.67451 | 28439 ft | 516 kts | 73° |
| 2026-04-26 04:23 | 36.73490 | 116.71799 | 28250 ft | 516 kts | 73° |
| 2026-04-26 04:23 | 36.74347 | 116.76147 | 28068 ft | 516 kts | 73° |
| 2026-04-26 04:23 | 36.75202 | 116.80495 | 27883 ft | 517 kts | 73° |
| 2026-04-26 04:23 | 36.76049 | 116.84799 | 27702 ft | 517 kts | 73° |
| 2026-04-26 04:24 | 36.76908 | 116.89163 | 27522 ft | 517 kts | 73° |
| 2026-04-26 04:24 | 36.77762 | 116.93520 | 27339 ft | 517 kts | 73° |
| 2026-04-26 04:24 | 36.78617 | 116.97889 | 27159 ft | 518 kts | 73° |
| 2026-04-26 04:24 | 36.79467 | 117.02261 | 26979 ft | 518 kts | 73° |
| 2026-04-26 04:25 | 36.80313 | 117.06634 | 26799 ft | 518 kts | 73° |
| 2026-04-26 04:25 | 36.81160 | 117.11008 | 26624 ft | 519 kts | 73° |
| 2026-04-26 04:25 | 36.82010 | 117.15396 | 26446 ft | 519 kts | 73° |
| 2026-04-26 04:25 | 36.82708 | 117.19824 | 26270 ft | 522 kts | 81° |
| 2026-04-26 04:26 | 36.82873 | 117.24350 | 26104 ft | 525 kts | 90° |
| 2026-04-26 04:26 | 36.82535 | 117.28845 | 25935 ft | 526 kts | 96° |
| 2026-04-26 04:26 | 36.82101 | 117.33377 | 25761 ft | 526 kts | 96° |
| 2026-04-26 04:26 | 36.81669 | 117.37920 | 25593 ft | 526 kts | 96° |
| 2026-04-26 04:27 | 36.81237 | 117.42467 | 25424 ft | 527 kts | 96° |
| 2026-04-26 04:27 | 36.80805 | 117.47005 | 25259 ft | 527 kts | 96° |
| 2026-04-26 04:27 | 36.80372 | 117.51545 | 25091 ft | 527 kts | 96° |
| 2026-04-26 04:27 | 36.79936 | 117.56094 | 24925 ft | 527 kts | 96° |
| 2026-04-26 04:28 | 36.79499 | 117.60636 | 24759 ft | 527 kts | 96° |
| 2026-04-26 04:28 | 36.79059 | 117.65171 | 24595 ft | 526 kts | 96° |
| 2026-04-26 04:28 | 36.78613 | 117.69698 | 24429 ft | 525 kts | 96° |
| 2026-04-26 04:28 | 36.78166 | 117.74214 | 24271 ft | 524 kts | 96° |
| 2026-04-26 04:29 | 36.77721 | 117.78715 | 24109 ft | 523 kts | 96° |
| 2026-04-26 04:29 | 36.77285 | 117.83159 | 23950 ft | 521 kts | 96° |
| 2026-04-26 04:29 | 36.76847 | 117.87638 | 23788 ft | 520 kts | 96° |
| 2026-04-26 04:29 | 36.76409 | 117.92108 | 23630 ft | 518 kts | 96° |
| 2026-04-26 04:30 | 36.75967 | 117.96563 | 23466 ft | 517 kts | 96° |
| 2026-04-26 04:30 | 36.75524 | 118.01011 | 23278 ft | 515 kts | 96° |
| 2026-04-26 04:30 | 36.75079 | 118.05442 | 23088 ft | 513 kts | 96° |
| 2026-04-26 04:30 | 36.74634 | 118.09840 | 22888 ft | 506 kts | 96° |
| 2026-04-26 04:31 | 36.74192 | 118.14160 | 22700 ft | 499 kts | 96° |
| 2026-04-26 04:31 | 36.73753 | 118.18440 | 22509 ft | 496 kts | 96° |
| 2026-04-26 04:31 | 36.73317 | 118.22692 | 22319 ft | 494 kts | 96° |
| 2026-04-26 04:31 | 36.72896 | 118.26929 | 22135 ft | 492 kts | 96° |
| 2026-04-26 04:32 | 36.72498 | 118.31158 | 21956 ft | 490 kts | 96° |
| 2026-04-26 04:32 | 36.72111 | 118.35385 | 21767 ft | 488 kts | 96° |
| 2026-04-26 04:32 | 36.71729 | 118.39582 | 21586 ft | 487 kts | 95° |
| 2026-04-26 04:32 | 36.71346 | 118.43762 | 21407 ft | 485 kts | 96° |
| 2026-04-26 04:33 | 36.70959 | 118.47889 | 21229 ft | 484 kts | 96° |
| 2026-04-26 04:33 | 36.70563 | 118.52035 | 21050 ft | 482 kts | 96° |
| 2026-04-26 04:33 | 36.70161 | 118.56200 | 20870 ft | 480 kts | 96° |
| 2026-04-26 04:33 | 36.69762 | 118.60329 | 20695 ft | 479 kts | 96° |
| 2026-04-26 04:34 | 36.69364 | 118.64444 | 20519 ft | 477 kts | 96° |
| 2026-04-26 04:34 | 36.68966 | 118.68533 | 20346 ft | 476 kts | 96° |
| 2026-04-26 04:34 | 36.68567 | 118.72618 | 20172 ft | 474 kts | 96° |
| 2026-04-26 04:34 | 36.68169 | 118.76700 | 19999 ft | 473 kts | 96° |
| 2026-04-26 04:35 | 36.67773 | 118.80759 | 19826 ft | 471 kts | 96° |
| 2026-04-26 04:35 | 36.67384 | 118.84757 | 19657 ft | 469 kts | 96° |
| 2026-04-26 04:35 | 36.66989 | 118.88794 | 19490 ft | 468 kts | 96° |
| 2026-04-26 04:35 | 36.66589 | 118.92814 | 19319 ft | 466 kts | 96° |
| 2026-04-26 04:36 | 36.66189 | 118.96821 | 19152 ft | 465 kts | 96° |
| 2026-04-26 04:36 | 36.65673 | 119.00796 | 18978 ft | 464 kts | 104° |
| 2026-04-26 04:36 | 36.64394 | 119.04476 | 18815 ft | 464 kts | 122° |
| 2026-04-26 04:36 | 36.62316 | 119.07522 | 18651 ft | 463 kts | 139° |
| 2026-04-26 04:37 | 36.59615 | 119.09671 | 18486 ft | 461 kts | 157° |
| 2026-04-26 04:37 | 36.56589 | 119.10736 | 18320 ft | 458 kts | 174° |
| 2026-04-26 04:37 | 36.53416 | 119.10731 | 18153 ft | 455 kts | 187° |
| 2026-04-26 04:37 | 36.50268 | 119.10372 | 17964 ft | 454 kts | 187° |
| 2026-04-26 04:38 | 36.47114 | 119.10004 | 17772 ft | 453 kts | 187° |
| 2026-04-26 04:38 | 36.43976 | 119.09635 | 17584 ft | 452 kts | 187° |
| 2026-04-26 04:38 | 36.40845 | 119.09271 | 17392 ft | 451 kts | 187° |
| 2026-04-26 04:38 | 36.37724 | 119.08912 | 17213 ft | 450 kts | 187° |
| 2026-04-26 04:39 | 36.34610 | 119.08559 | 17034 ft | 448 kts | 186° |
| 2026-04-26 04:39 | 36.31502 | 119.08210 | 16826 ft | 447 kts | 187° |
| 2026-04-26 04:39 | 36.28401 | 119.07862 | 16660 ft | 447 kts | 186° |
| 2026-04-26 04:39 | 36.25305 | 119.07514 | 16478 ft | 445 kts | 186° |
| 2026-04-26 04:40 | 36.23265 | 119.07283 | 16356 ft | 445 kts | 187° |
| 2026-04-26 04:40 | 36.19191 | 119.06819 | 16121 ft | 443 kts | 186° |
| 2026-04-26 04:40 | 36.16123 | 119.06466 | 15944 ft | 442 kts | 187° |
| 2026-04-26 04:40 | 36.13059 | 119.06115 | 15757 ft | 441 kts | 187° |
| 2026-04-26 04:41 | 36.09997 | 119.05768 | 15600 ft | 439 kts | 187° |
| 2026-04-26 04:41 | 36.07986 | 119.05538 | 15638 ft | 440 kts | 186° |
| 2026-04-26 04:41 | 36.04927 | 119.05192 | 15645 ft | 440 kts | 187° |
| 2026-04-26 04:41 | 36.01876 | 119.04849 | 15649 ft | 440 kts | 186° |
| 2026-04-26 04:42 | 35.97834 | 119.04396 | 15644 ft | 440 kts | 187° |
| 2026-04-26 04:42 | 35.95765 | 119.04166 | 15642 ft | 440 kts | 186° |
| 2026-04-26 04:42 | 35.92747 | 119.03673 | 15641 ft | 432 kts | 195° |
| 2026-04-26 04:42 | 35.90036 | 119.02381 | 15647 ft | 406 kts | 211° |
| 2026-04-26 04:43 | 35.87812 | 119.00413 | 15647 ft | 382 kts | 225° |
| 2026-04-26 04:43 | 35.86148 | 118.98012 | 15647 ft | 367 kts | 239° |
| 2026-04-26 04:43 | 35.84993 | 118.95235 | 15650 ft | 361 kts | 252° |
| 2026-04-26 04:43 | 35.84386 | 118.92247 | 15648 ft | 358 kts | 265° |
| 2026-04-26 04:44 | 35.84328 | 118.89197 | 15647 ft | 355 kts | 277° |
| 2026-04-26 04:44 | 35.84808 | 118.86225 | 15648 ft | 353 kts | 289° |
| 2026-04-26 04:44 | 35.85800 | 118.83467 | 15649 ft | 351 kts | 301° |
| 2026-04-26 04:44 | 35.87258 | 118.81051 | 15648 ft | 351 kts | 314° |
| 2026-04-26 04:45 | 35.89084 | 118.79111 | 15645 ft | 351 kts | 326° |
| 2026-04-26 04:45 | 35.91242 | 118.77688 | 15650 ft | 352 kts | 338° |
| 2026-04-26 04:45 | 35.93598 | 118.76881 | 15646 ft | 353 kts | 350° |
| 2026-04-26 04:45 | 35.96061 | 118.76680 | 15644 ft | 355 kts | 359° |
| 2026-04-26 04:46 | 35.98530 | 118.76793 | 15642 ft | 355 kts | 3° |
| 2026-04-26 04:46 | 36.01003 | 118.77075 | 15645 ft | 356 kts | 5° |
| 2026-04-26 04:46 | 36.03466 | 118.77431 | 15642 ft | 356 kts | 5° |
| 2026-04-26 04:46 | 36.05894 | 118.77794 | 15643 ft | 356 kts | 5° |
| 2026-04-26 04:47 | 36.08353 | 118.78148 | 15642 ft | 356 kts | 5° |
| 2026-04-26 04:47 | 36.10787 | 118.78739 | 15637 ft | 357 kts | 15° |
| 2026-04-26 04:47 | 36.13075 | 118.79940 | 15635 ft | 359 kts | 28° |
| 2026-04-26 04:47 | 36.15102 | 118.81766 | 15636 ft | 362 kts | 41° |
| 2026-04-26 04:48 | 36.17910 | 118.86936 | 15635 ft | 368 kts | 68° |
| 2026-04-26 04:48 | 36.18533 | 118.90014 | 15641 ft | 371 kts | 81° |
| 2026-04-26 04:48 | 36.18573 | 118.93199 | 15637 ft | 372 kts | 95° |
| 2026-04-26 04:49 | 36.18012 | 118.96331 | 15639 ft | 375 kts | 108° |
| 2026-04-26 04:49 | 36.16865 | 118.99223 | 15637 ft | 376 kts | 122° |
| 2026-04-26 04:49 | 36.15216 | 119.01689 | 15637 ft | 377 kts | 136° |
| 2026-04-26 04:49 | 36.13124 | 119.03646 | 15634 ft | 377 kts | 150° |
| 2026-04-26 04:50 | 36.10715 | 119.04946 | 15640 ft | 377 kts | 164° |
| 2026-04-26 04:50 | 36.08140 | 119.05507 | 15642 ft | 376 kts | 178° |
| 2026-04-26 04:50 | 36.05520 | 119.05517 | 15641 ft | 376 kts | 183° |
| 2026-04-26 04:50 | 36.02909 | 119.05299 | 15640 ft | 376 kts | 186° |
| 2026-04-26 04:51 | 36.00308 | 119.04949 | 15644 ft | 376 kts | 188° |
| 2026-04-26 04:51 | 35.97742 | 119.04557 | 15648 ft | 376 kts | 188° |
| 2026-04-26 04:51 | 35.95149 | 119.04163 | 15645 ft | 376 kts | 188° |
| 2026-04-26 04:51 | 35.92591 | 119.03556 | 15642 ft | 374 kts | 200° |
| 2026-04-26 04:52 | 35.90304 | 119.02099 | 15643 ft | 370 kts | 218° |
| 2026-04-26 04:52 | 35.88508 | 118.99863 | 15646 ft | 366 kts | 237° |
| 2026-04-26 04:52 | 35.87375 | 118.97077 | 15641 ft | 362 kts | 255° |
| 2026-04-26 04:52 | 35.86999 | 118.94037 | 15640 ft | 358 kts | 273° |
| 2026-04-26 04:53 | 35.87395 | 118.91025 | 15645 ft | 355 kts | 290° |
| 2026-04-26 04:53 | 35.88499 | 118.88320 | 15646 ft | 354 kts | 307° |
| 2026-04-26 04:53 | 35.90204 | 118.86156 | 15644 ft | 353 kts | 324° |
| 2026-04-26 04:53 | 35.92356 | 118.84721 | 15647 ft | 353 kts | 340° |
| 2026-04-26 04:54 | 35.94763 | 118.84134 | 15646 ft | 353 kts | 357° |
| 2026-04-26 04:54 | 35.97195 | 118.84180 | 15646 ft | 354 kts | 2° |
| 2026-04-26 04:54 | 35.99658 | 118.84410 | 15647 ft | 355 kts | 5° |
| 2026-04-26 04:54 | 36.02118 | 118.84735 | 15643 ft | 355 kts | 6° |
| 2026-04-26 04:55 | 36.04570 | 118.85090 | 15639 ft | 355 kts | 6° |
| 2026-04-26 04:55 | 36.07026 | 118.85494 | 15641 ft | 356 kts | 11° |
| 2026-04-26 04:55 | 36.09344 | 118.86554 | 15634 ft | 358 kts | 28° |
| 2026-04-26 04:55 | 36.11320 | 118.88426 | 15635 ft | 360 kts | 45° |
| 2026-04-26 04:56 | 36.12756 | 118.90971 | 15634 ft | 364 kts | 63° |
| 2026-04-26 04:56 | 36.13493 | 118.93968 | 15643 ft | 367 kts | 81° |
| 2026-04-26 04:56 | 36.13426 | 118.97125 | 15636 ft | 370 kts | 99° |
| 2026-04-26 04:56 | 36.12552 | 119.00115 | 15641 ft | 373 kts | 118° |
| 2026-04-26 04:57 | 36.10972 | 119.02605 | 15639 ft | 375 kts | 137° |
| 2026-04-26 04:57 | 36.08810 | 119.04391 | 15636 ft | 376 kts | 156° |
| 2026-04-26 04:57 | 36.06301 | 119.05241 | 15648 ft | 376 kts | 175° |
| 2026-04-26 04:57 | 36.03689 | 119.05245 | 15643 ft | 376 kts | 184° |
| 2026-04-26 04:58 | 36.01078 | 119.05017 | 15644 ft | 376 kts | 186° |
| 2026-04-26 04:58 | 35.98477 | 119.04681 | 15645 ft | 376 kts | 187° |
| 2026-04-26 04:58 | 35.95868 | 119.04302 | 15644 ft | 376 kts | 187° |
| 2026-04-26 04:58 | 35.93284 | 119.03834 | 15641 ft | 375 kts | 195° |
| 2026-04-26 04:59 | 35.90893 | 119.02596 | 15642 ft | 373 kts | 213° |
| 2026-04-26 04:59 | 35.88939 | 119.00538 | 15645 ft | 369 kts | 232° |
| 2026-04-26 04:59 | 35.87613 | 118.97850 | 15649 ft | 366 kts | 250° |
| 2026-04-26 04:59 | 35.87035 | 118.94824 | 15643 ft | 362 kts | 268° |
| 2026-04-26 05:00 | 35.87232 | 118.91756 | 15643 ft | 358 kts | 285° |
| 2026-04-26 05:00 | 35.88161 | 118.88928 | 15649 ft | 356 kts | 303° |
| 2026-04-26 05:00 | 35.89705 | 118.86621 | 15643 ft | 354 kts | 320° |
| 2026-04-26 05:00 | 35.91765 | 118.84978 | 15647 ft | 353 kts | 336° |
| 2026-04-26 05:01 | 35.94125 | 118.84161 | 15647 ft | 353 kts | 353° |
| 2026-04-26 05:01 | 35.96584 | 118.84113 | 15641 ft | 354 kts | 2° |
| 2026-04-26 05:01 | 35.99044 | 118.84312 | 15642 ft | 354 kts | 5° |
| 2026-04-26 05:01 | 36.01502 | 118.84625 | 15643 ft | 355 kts | 6° |
| 2026-04-26 05:02 | 36.03958 | 118.84979 | 15646 ft | 355 kts | 6° |
| 2026-04-26 05:02 | 36.06408 | 118.85341 | 15642 ft | 355 kts | 8° |
| 2026-04-26 05:02 | 36.08776 | 118.86177 | 15637 ft | 356 kts | 24° |
| 2026-04-26 05:02 | 36.10857 | 118.87832 | 15638 ft | 358 kts | 40° |
| 2026-04-26 05:03 | 36.12459 | 118.90192 | 15543 ft | 361 kts | 57° |
| 2026-04-26 05:03 | 36.13401 | 118.93059 | 15064 ft | 361 kts | 76° |
| 2026-04-26 05:03 | 36.13552 | 118.96139 | 14599 ft | 361 kts | 95° |
| 2026-04-26 05:03 | 36.12956 | 118.99098 | 14152 ft | 360 kts | 112° |
| 2026-04-26 05:04 | 36.11659 | 119.01728 | 13697 ft | 358 kts | 130° |
| 2026-04-26 05:04 | 36.09794 | 119.03743 | 13190 ft | 356 kts | 148° |
| 2026-04-26 05:04 | 36.07537 | 119.04960 | 12695 ft | 353 kts | 166° |
| 2026-04-26 05:04 | 36.05115 | 119.05297 | 12202 ft | 350 kts | 180° |
| 2026-04-26 05:05 | 36.02694 | 119.05184 | 11730 ft | 347 kts | 184° |
| 2026-04-26 05:05 | 36.00299 | 119.04921 | 11253 ft | 344 kts | 186° |
| 2026-04-26 05:05 | 35.97933 | 119.04589 | 10783 ft | 341 kts | 186° |
| 2026-04-26 05:05 | 35.95591 | 119.04243 | 10323 ft | 338 kts | 186° |
| 2026-04-26 05:06 | 35.93277 | 119.03801 | 9883 ft | 334 kts | 195° |
| 2026-04-26 05:06 | 35.91227 | 119.02576 | 9718 ft | 323 kts | 215° |
| 2026-04-26 05:06 | 35.89685 | 119.00674 | 9727 ft | 307 kts | 233° |
| 2026-04-26 05:06 | 35.88751 | 118.98384 | 9735 ft | 294 kts | 251° |
| 2026-04-26 05:07 | 35.88446 | 118.95906 | 9750 ft | 293 kts | 269° |
| 2026-04-26 05:07 | 35.88781 | 118.93432 | 9736 ft | 295 kts | 287° |
| 2026-04-26 05:07 | 35.89736 | 118.91189 | 9741 ft | 297 kts | 306° |
| 2026-04-26 05:07 | 35.91224 | 118.89415 | 9744 ft | 299 kts | 325° |
| 2026-04-26 05:08 | 35.93094 | 118.88301 | 9697 ft | 301 kts | 343° |
| 2026-04-26 05:08 | 35.95135 | 118.87958 | 9449 ft | 293 kts | 1° |
| 2026-04-26 05:08 | 35.97135 | 118.88136 | 9217 ft | 285 kts | 14° |
| 2026-04-26 05:08 | 35.98936 | 118.89049 | 8976 ft | 276 kts | 36° |
| 2026-04-26 05:09 | 36.00293 | 118.90652 | 8748 ft | 268 kts | 58° |
| 2026-04-26 05:09 | 36.01054 | 118.92681 | 8527 ft | 263 kts | 79° |
| 2026-04-26 05:09 | 36.01168 | 118.94901 | 8297 ft | 258 kts | 100° |
| 2026-04-26 05:09 | 36.00656 | 118.96999 | 8071 ft | 253 kts | 120° |
| 2026-04-26 05:10 | 35.99613 | 118.98718 | 7867 ft | 249 kts | 140° |
| 2026-04-26 05:10 | 35.98270 | 119.00072 | 7798 ft | 249 kts | 143° |
| 2026-04-26 05:10 | 35.96919 | 119.01416 | 7794 ft | 249 kts | 143° |
| 2026-04-26 05:10 | 35.95558 | 119.02755 | 7792 ft | 250 kts | 146° |
| 2026-04-26 05:11 | 35.93999 | 119.03648 | 7799 ft | 248 kts | 167° |
| 2026-04-26 05:11 | 35.92280 | 119.03776 | 7805 ft | 249 kts | 185° |
| 2026-04-26 05:11 | 35.90555 | 119.03568 | 7805 ft | 249 kts | 185° |
| 2026-04-26 05:11 | 35.88806 | 119.03363 | 7500 ft | 251 kts | 185° |
| 2026-04-26 05:12 | 35.87079 | 119.03162 | 7200 ft | 248 kts | 185° |
| 2026-04-26 05:12 | 35.85377 | 119.02967 | 6908 ft | 244 kts | 185° |
| 2026-04-26 05:12 | 35.83689 | 119.02774 | 6618 ft | 242 kts | 185° |
| 2026-04-26 05:12 | 35.82038 | 119.02587 | 6323 ft | 240 kts | 184° |
| 2026-04-26 05:13 | 35.80379 | 119.02399 | 6029 ft | 239 kts | 184° |
| 2026-04-26 05:13 | 35.78734 | 119.02214 | 5736 ft | 236 kts | 185° |
| 2026-04-26 05:13 | 35.77100 | 119.02027 | 5430 ft | 236 kts | 185° |
| 2026-04-26 05:13 | 35.75463 | 119.01838 | 5129 ft | 235 kts | 185° |
| 2026-04-26 05:14 | 35.73835 | 119.01649 | 4832 ft | 234 kts | 186° |
| 2026-04-26 05:14 | 35.72217 | 119.01461 | 4540 ft | 235 kts | 186° |
| 2026-04-26 05:14 | 35.70607 | 119.01276 | 4223 ft | 227 kts | 186° |
| 2026-04-26 05:14 | 35.69081 | 119.01103 | 3949 ft | 211 kts | 186° |
| 2026-04-26 05:15 | 35.67655 | 119.00944 | 3888 ft | 201 kts | 186° |
| 2026-04-26 05:15 | 35.66276 | 119.00821 | 3846 ft | 195 kts | 182° |
| 2026-04-26 05:15 | 35.64973 | 119.00837 | 3762 ft | 183 kts | 178° |
| 2026-04-26 05:15 | 35.63717 | 119.00979 | 3669 ft | 179 kts | 175° |
| 2026-04-26 05:16 | 35.62492 | 119.01243 | 3560 ft | 178 kts | 171° |
| 2026-04-26 05:16 | 35.61294 | 119.01626 | 3461 ft | 177 kts | 166° |
| 2026-04-26 05:16 | 35.60183 | 119.02096 | 3375 ft | 167 kts | 161° |
| 2026-04-26 05:16 | 35.59158 | 119.02637 | 3288 ft | 154 kts | 159° |
| 2026-04-26 05:17 | 35.58231 | 119.03226 | 3192 ft | 146 kts | 153° |
| 2026-04-26 05:17 | 35.57370 | 119.03864 | 3128 ft | 145 kts | 151° |
| 2026-04-26 05:17 | 35.56543 | 119.04560 | 3031 ft | 142 kts | 148° |
| 2026-04-26 05:17 | 35.55755 | 119.05317 | 3027 ft | 145 kts | 144° |
| 2026-04-26 05:18 | 35.55006 | 119.06139 | 3012 ft | 145 kts | 141° |
| 2026-04-26 05:18 | 35.54298 | 119.07023 | 3000 ft | 146 kts | 137° |
| 2026-04-26 05:18 | 35.53633 | 119.07973 | 3010 ft | 147 kts | 133° |
| 2026-04-26 05:18 | 35.53028 | 119.08966 | 3011 ft | 146 kts | 129° |
| 2026-04-26 05:19 | 35.52458 | 119.10007 | 3013 ft | 148 kts | 128° |
| 2026-04-26 05:19 | 35.51878 | 119.11062 | 3020 ft | 150 kts | 128° |
| 2026-04-26 05:19 | 35.51297 | 119.12120 | 3003 ft | 148 kts | 129° |
| 2026-04-26 05:19 | 35.50762 | 119.13215 | 2895 ft | 150 kts | 120° |
| 2026-04-26 05:20 | 35.50300 | 119.14362 | 2843 ft | 149 kts | 122° |
| 2026-04-26 05:20 | 35.49802 | 119.15475 | 2740 ft | 148 kts | 124° |
| 2026-04-26 05:20 | 35.49266 | 119.16551 | 2581 ft | 147 kts | 126° |
| 2026-04-26 05:20 | 35.48704 | 119.17612 | 2522 ft | 148 kts | 130° |
| 2026-04-26 05:21 | 35.48094 | 119.18633 | 2519 ft | 150 kts | 133° |
| 2026-04-26 05:21 | 35.47497 | 119.19672 | 2351 ft | 148 kts | 129° |
| 2026-04-26 05:21 | 35.46937 | 119.20719 | 2269 ft | 150 kts | 127° |
| 2026-04-26 05:21 | 35.46349 | 119.21804 | 1939 ft | 157 kts | 126° |
| 2026-04-26 05:22 | 35.45730 | 119.22882 | 1677 ft | 152 kts | 130° |
| 2026-04-26 05:22 | 35.45124 | 119.23946 | 1331 ft | 151 kts | 127° |
| 2026-04-26 05:22 | 35.44543 | 119.25015 | 1123 ft | 147 kts | 128° |
| 2026-04-26 05:22 | 35.43992 | 119.26053 | 980 ft | 145 kts | 128° |
| 2026-04-26 05:23 | 35.43442 | 119.27070 | 815 ft | 142 kts | 125° |
| 2026-04-26 05:23 | 35.42892 | 119.28083 | 692 ft | 145 kts | 129° |
| 2026-04-26 05:23 | 35.42328 | 119.29112 | 575 ft | 144 kts | 128° |
| 2026-04-26 05:23 | 35.41768 | 119.30133 | 398 ft | 143 kts | 128° |
| 2026-04-26 05:24 | 35.41216 | 119.31148 | 217 ft | 142 kts | 127° |
| 2026-04-26 05:24 | 35.40701 | 119.32087 | 166 ft | 109 kts | 124° |
| 2026-04-26 05:24 | 35.40390 | 119.32666 | 165 ft | 56 kts | 123° |
| 2026-04-26 05:24 | 35.40253 | 119.32919 | 164 ft | 27 kts | 124° |
| 2026-04-26 05:25 | 35.40141 | 119.33117 | 165 ft | 32 kts | 128° |
| 2026-04-26 05:25 | 35.40014 | 119.33336 | 166 ft | 30 kts | 124° |
| 2026-04-26 05:25 | 35.39910 | 119.33483 | 166 ft | 19 kts | 133° |
| 2026-04-26 05:25 | 35.39912 | 119.33520 | 166 ft | 1 kts | 1° |
| 2026-04-26 05:26 | 35.39939 | 119.33491 | 166 ft | 15 kts | 309° |
| 2026-04-26 05:26 | 35.40008 | 119.33369 | 166 ft | 18 kts | 304° |
| 2026-04-26 05:26 | 35.40053 | 119.33285 | 165 ft | 18 kts | 303° |
| 2026-04-26 05:26 | 35.40125 | 119.33152 | 165 ft | 20 kts | 305° |
| 2026-04-26 05:27 | 35.40229 | 119.32965 | 164 ft | 30 kts | 303° |
| 2026-04-26 05:27 | 35.40323 | 119.32751 | 165 ft | 18 kts | 272° |
| 2026-04-26 05:27 | 35.40245 | 119.32662 | 166 ft | 16 kts | 213° |
| 2026-04-26 05:27 | 35.40159 | 119.32583 | 165 ft | 15 kts | 224° |
| 2026-04-26 05:28 | 35.40091 | 119.32503 | 165 ft | 9 kts | 251° |
| 2026-04-26 05:28 | 35.40111 | 119.32437 | 165 ft | 8 kts | 304° |
| 2026-04-26 05:28 | 35.40151 | 119.32368 | 165 ft | 7 kts | 304° |
| 2026-04-26 05:28 | 35.40168 | 119.32336 | 165 ft | 6 kts | 303° |
| 2026-04-26 05:29 | 35.40166 | 119.32297 | 165 ft | 4 kts | 240° |
| 2026-04-26 05:29 | 35.40143 | 119.32273 | 165 ft | 4 kts | 217° |
| 2026-04-26 05:29 | 35.40132 | 119.32264 | 165 ft | 0 kts | 213° |
| 2026-04-26 05:29 | 35.40130 | 119.32262 | 165 ft | 0 kts | 213° |